createdAt,value
2022-12-29T00:01:22.471Z,14.55
2022-12-29T00:06:25.049Z,13.82
2022-12-29T00:11:28.567Z,11.90
2022-12-29T00:16:34.356Z,11.98
2022-12-29T00:21:54.722Z,12.93
2022-12-29T00:27:28.659Z,15.70
2022-12-29T00:32:49.353Z,12.30
2022-12-29T00:38:10.438Z,12.80
2022-12-29T00:43:30.996Z,13.07
2022-12-29T00:48:51.556Z,13.57
2022-12-29T00:53:53.667Z,17.42
2022-12-29T00:58:55.853Z,13.90
2022-12-29T01:04:02.235Z,20.10
2022-12-29T01:09:25.966Z,16.58
2022-12-29T01:14:28.769Z,15.90
2022-12-29T01:19:30.923Z,15.93
2022-12-29T01:24:33.059Z,15.95
2022-12-29T01:29:35.180Z,18.58
2022-12-29T01:34:37.365Z,13.32
2022-12-29T01:39:39.596Z,16.20
2022-12-29T01:44:58.152Z,19.17
2022-12-29T01:50:06.823Z,23.80
2022-12-29T01:55:12.112Z,22.30
2022-12-29T02:00:15.371Z,16.08
2022-12-29T02:05:28.348Z,14.02
2022-12-29T02:10:33.975Z,17.02
2022-12-29T02:16:06.990Z,15.02
2022-12-29T02:21:27.833Z,8.38
2022-12-29T02:26:45.377Z,14.00
2022-12-29T02:32:00.755Z,8.82
2022-12-29T02:37:25.556Z,15.03
2022-12-29T02:42:50.784Z,13.13
2022-12-29T02:48:05.056Z,10.52
2022-12-29T02:53:11.778Z,13.32
2022-12-29T02:58:24.016Z,14.00
2022-12-29T03:03:47.682Z,13.90
2022-12-29T03:09:18.281Z,14.02
2022-12-29T03:15:10.756Z,14.68
2022-12-29T03:20:24.685Z,10.23
2022-12-29T03:25:33.757Z,18.40
2022-12-29T03:30:40.974Z,11.35
2022-12-29T03:35:44.987Z,14.93
2022-12-29T03:40:53.830Z,11.40
2022-12-29T03:45:56.134Z,17.52
2022-12-29T03:50:58.247Z,13.45
2022-12-29T03:56:00.431Z,13.07
2022-12-29T04:01:02.935Z,13.38
2022-12-29T04:06:08.726Z,11.53
2022-12-29T04:11:20.699Z,15.00
2022-12-29T04:16:22.940Z,14.80
2022-12-29T04:21:26.164Z,14.68
2022-12-29T04:26:28.386Z,14.00
2022-12-29T04:31:41.137Z,19.58
2022-12-29T04:36:43.505Z,10.63
2022-12-29T04:41:45.670Z,12.68
2022-12-29T04:46:52.826Z,11.45
2022-12-29T04:52:27.056Z,11.32
2022-12-29T04:57:30.846Z,14.15
2022-12-29T05:02:35.616Z,14.70
2022-12-29T05:07:38.059Z,15.48
2022-12-29T05:12:40.497Z,22.60
2022-12-29T05:17:43.170Z,13.95
2022-12-29T05:22:45.799Z,11.93
2022-12-29T05:27:47.939Z,14.18
2022-12-29T05:33:16.186Z,13.82
2022-12-29T05:38:18.793Z,15.50
2022-12-29T05:43:21.505Z,17.73
2022-12-29T05:48:44.005Z,6.82
2022-12-29T05:54:10.423Z,18.23
2022-12-29T05:59:13.597Z,16.23
2022-12-29T06:04:16.204Z,18.25
2022-12-29T06:09:18.366Z,14.40
2022-12-29T06:14:21.288Z,10.60
2022-12-29T06:19:23.679Z,13.70
2022-12-29T06:24:26.381Z,15.05
2022-12-29T06:29:29.022Z,15.15
2022-12-29T06:34:33.350Z,16.05
2022-12-29T06:39:35.777Z,16.25
2022-12-29T06:44:41.977Z,11.93
2022-12-29T06:49:45.750Z,13.68
2022-12-29T06:54:47.903Z,15.85
2022-12-29T06:59:50.089Z,11.05
2022-12-29T07:04:53.462Z,13.40
2022-12-29T07:09:55.892Z,13.48
2022-12-29T07:14:57.975Z,17.92
2022-12-29T07:20:00.170Z,20.15
2022-12-29T07:25:02.360Z,22.00
2022-12-29T07:30:04.812Z,17.05
2022-12-29T07:35:07.402Z,16.92
2022-12-29T07:40:11.206Z,17.63
2022-12-29T07:45:13.275Z,17.80
2022-12-29T07:55:31.799Z,12.45
2022-12-29T08:00:34.327Z,9.93
2022-12-29T08:05:36.505Z,13.48
2022-12-29T08:10:38.615Z,14.98
2022-12-29T08:15:40.803Z,12.57
2022-12-29T08:20:42.912Z,10.75
2022-12-29T08:25:45.034Z,13.57
2022-12-29T08:30:47.198Z,6.93
2022-12-29T08:35:49.456Z,13.88
2022-12-29T08:40:52.774Z,13.65
2022-12-29T08:45:55.264Z,12.55
2022-12-29T08:50:57.464Z,7.30
2022-12-29T08:56:05.173Z,8.43
2022-12-29T09:01:17.263Z,7.45
2022-12-29T09:06:19.544Z,6.25
2022-12-29T09:11:24.395Z,4.47
2022-12-29T09:16:28.035Z,9.25
2022-12-29T09:21:30.366Z,5.65
2022-12-29T09:26:32.487Z,10.45
2022-12-29T09:31:34.663Z,10.63
2022-12-29T09:36:36.860Z,15.50
2022-12-29T09:42:06.820Z,12.07
2022-12-29T09:47:14.146Z,14.18
2022-12-29T09:52:45.147Z,10.18
2022-12-29T09:57:54.328Z,11.45
2022-12-29T10:03:04.000Z,16.05
2022-12-29T10:08:27.840Z,13.90
2022-12-29T10:13:35.019Z,14.75
2022-12-29T10:19:19.297Z,11.32
2022-12-29T10:24:23.035Z,9.93
2022-12-29T10:29:38.001Z,14.07
2022-12-29T10:34:46.780Z,13.95
2022-12-29T10:39:56.865Z,10.60
2022-12-29T10:45:00.915Z,13.13
2022-12-29T10:50:04.135Z,9.05
2022-12-29T10:55:14.123Z,9.93
2022-12-29T11:00:21.858Z,9.68
2022-12-29T11:05:59.143Z,9.77
2022-12-29T11:11:07.706Z,4.93
2022-12-29T11:16:13.376Z,9.77
2022-12-29T11:21:41.099Z,5.80
2022-12-29T11:26:45.614Z,6.15
2022-12-29T11:31:50.544Z,6.20
2022-12-29T11:36:59.274Z,5.65
2022-12-29T11:42:03.850Z,6.32
2022-12-29T11:47:10.068Z,5.75
2022-12-29T11:52:14.212Z,5.38
2022-12-29T11:57:18.385Z,7.07
2022-12-29T12:02:43.896Z,6.13
2022-12-29T12:07:50.806Z,6.05
2022-12-29T12:13:23.533Z,6.97
2022-12-29T12:18:35.064Z,8.25
2022-12-29T12:23:46.138Z,10.77
2022-12-29T12:29:00.765Z,7.70
2022-12-29T12:34:10.041Z,6.50
2022-12-29T12:39:18.270Z,7.80
2022-12-29T12:44:27.787Z,9.15
2022-12-29T12:49:51.288Z,7.20
2022-12-29T12:55:24.438Z,4.97
2022-12-29T13:00:28.937Z,4.85
2022-12-29T13:05:52.370Z,4.78
2022-12-29T13:11:31.974Z,4.75
2022-12-29T13:16:48.466Z,5.57
2022-12-29T13:22:05.972Z,8.07
2022-12-29T13:27:37.376Z,9.07
2022-12-29T13:33:24.048Z,7.88
2022-12-29T13:38:42.211Z,6.75
2022-12-29T13:43:47.840Z,5.20
2022-12-29T13:49:01.345Z,7.43
2022-12-29T13:54:15.788Z,6.80
2022-12-29T13:59:36.741Z,6.63
2022-12-29T14:05:03.200Z,3.67
2022-12-29T14:10:06.480Z,4.63
2022-12-29T14:15:11.401Z,5.10
2022-12-29T14:20:24.331Z,6.78
2022-12-29T14:25:57.130Z,4.22
2022-12-29T14:31:26.380Z,5.18
2022-12-29T14:36:35.647Z,6.35
2022-12-29T14:41:40.320Z,5.85
2022-12-29T14:46:54.209Z,5.40
2022-12-29T14:52:15.584Z,5.00
2022-12-29T14:57:26.901Z,7.78
2022-12-29T15:02:38.213Z,8.48
2022-12-29T15:07:41.185Z,4.70
2022-12-29T15:12:50.009Z,6.97
2022-12-29T15:17:52.671Z,8.05
2022-12-29T15:23:01.853Z,4.82
2022-12-29T15:28:07.360Z,7.47
2022-12-29T15:33:20.200Z,4.63
2022-12-29T15:38:32.180Z,5.60
2022-12-29T15:44:09.377Z,6.45
2022-12-29T15:49:15.183Z,7.65
2022-12-29T15:54:23.365Z,5.03
2022-12-29T15:59:35.314Z,4.63
2022-12-29T16:04:54.386Z,5.38
2022-12-29T16:10:02.215Z,4.05
2022-12-29T16:15:09.216Z,6.60
2022-12-29T16:20:41.832Z,5.85
2022-12-29T16:25:44.054Z,6.80
2022-12-29T16:30:46.289Z,5.07
2022-12-29T16:35:48.726Z,6.75
2022-12-29T16:40:54.821Z,5.47
2022-12-29T16:45:59.848Z,6.68
2022-12-29T16:51:05.598Z,8.23
2022-12-29T16:56:18.010Z,5.20
2022-12-29T17:01:21.733Z,6.88
2022-12-29T17:06:24.927Z,3.47
2022-12-29T17:11:58.391Z,6.40
2022-12-29T17:17:04.498Z,6.47
2022-12-29T17:22:27.117Z,8.82
2022-12-29T17:27:41.492Z,9.25
2022-12-29T17:32:46.750Z,3.58
2022-12-29T17:37:50.205Z,5.10
2022-12-29T17:42:57.731Z,7.03
2022-12-29T17:48:02.871Z,10.55
2022-12-29T17:53:11.397Z,5.73
2022-12-29T17:58:22.373Z,6.40
2022-12-29T18:03:38.971Z,7.35
2022-12-29T18:08:42.539Z,6.15
2022-12-29T18:13:46.889Z,9.05
2022-12-29T18:18:49.351Z,14.25
2022-12-29T18:23:51.855Z,7.38
2022-12-29T18:28:54.712Z,6.97
2022-12-29T18:33:58.789Z,9.48
2022-12-29T18:39:00.863Z,15.95
2022-12-29T18:44:03.010Z,15.45
2022-12-29T18:49:05.195Z,9.20
2022-12-29T18:54:13.469Z,8.75
2022-12-29T18:59:15.699Z,5.53
2022-12-29T19:04:18.202Z,6.15
2022-12-29T19:09:20.285Z,10.25
2022-12-29T19:14:22.372Z,12.57
2022-12-29T19:19:24.561Z,12.60
2022-12-29T19:24:26.699Z,9.80
2022-12-29T19:29:28.942Z,14.10
2022-12-29T19:34:31.098Z,16.48
2022-12-29T19:39:33.294Z,18.90
2022-12-29T19:44:35.465Z,23.73
2022-12-29T19:49:37.902Z,32.30
2022-12-29T19:54:40.053Z,28.45
2022-12-29T19:59:42.179Z,22.52
2022-12-29T20:04:44.870Z,23.70
2022-12-29T20:09:46.997Z,19.98
2022-12-29T20:14:49.238Z,15.13
2022-12-29T20:19:51.463Z,10.55
2022-12-29T20:25:05.127Z,7.88
2022-12-29T20:30:15.749Z,9.48
2022-12-29T20:35:17.904Z,10.88
2022-12-29T20:40:20.026Z,11.00
2022-12-29T20:45:22.117Z,7.70
2022-12-29T20:50:24.214Z,8.88
2022-12-29T20:55:26.493Z,11.65
2022-12-29T21:00:30.758Z,6.78
2022-12-29T21:05:36.172Z,8.65
2022-12-29T21:10:38.454Z,5.05
2022-12-29T21:15:40.664Z,8.25
2022-12-29T21:20:42.837Z,11.70
2022-12-29T21:25:45.069Z,7.38
2022-12-29T21:30:49.141Z,5.90
2022-12-29T21:35:51.479Z,8.93
2022-12-29T21:40:53.635Z,8.07
2022-12-29T21:45:55.964Z,8.50
2022-12-29T21:51:30.189Z,6.40
2022-12-29T21:56:32.924Z,5.18
2022-12-29T22:01:55.978Z,4.63
2022-12-29T22:07:16.994Z,7.70
2022-12-29T22:12:37.688Z,6.07
2022-12-29T22:17:44.995Z,6.15
2022-12-29T22:22:50.489Z,7.53
2022-12-29T22:27:57.224Z,6.55
2022-12-29T22:33:01.719Z,8.60
2022-12-29T22:38:03.802Z,13.32
2022-12-29T22:43:12.722Z,16.35
2022-12-29T22:48:15.275Z,22.98
2022-12-29T22:53:17.402Z,18.27
2022-12-29T22:58:19.463Z,17.73
2022-12-29T23:03:21.821Z,12.05
2022-12-29T23:08:24.438Z,10.27
2022-12-29T23:13:26.862Z,11.25
2022-12-29T23:18:29.239Z,6.70
2022-12-29T23:23:50.137Z,11.15
2022-12-29T23:28:59.729Z,15.55
2022-12-29T23:34:04.191Z,9.75
2022-12-29T23:39:08.806Z,11.18
2022-12-29T23:44:10.920Z,9.63
2022-12-29T23:49:13.063Z,9.50
2022-12-29T23:54:15.262Z,11.95
2022-12-29T23:59:17.317Z,10.23
